Time;durP1;ratioP1;P1;durP2;ratioP2;P2;SDS_P1;SDS_P2;PMS_P1;PMS_P2;Temp;Humidity;BMP_temperature;BMP_pressure;BME280_temperature;BME280_humidity;BME280_pressure;Samples;Min_cycle;Max_cycle;Signal;HPM_P1;HPM_P2
2022/11/25 02:43:34;;;;;;;24.10;11.23;;;;;;;4.35;100.00;99916.95;1729054;82;21028;-72
2022/11/25 02:46:13;;;;;;;26.10;12.90;;;;;;;4.34;100.00;99920.63;1748251;82;21007;-73
2022/11/25 02:48:41;;;;;;;26.40;12.13;;;;;;;4.34;100.00;99932.68;1743311;82;21031;-73
2022/11/25 02:51:12;;;;;;;23.07;12.03;;;;;;;4.33;100.00;99933.65;1743808;82;21002;-72
2022/11/25 02:53:38;;;;;;;22.90;10.97;;;;;;;4.32;100.00;99934.15;1743708;82;21522;-71
2022/11/25 02:56:06;;;;;;;24.73;12.23;;;;;;;4.32;100.00;99926.12;1743613;82;21043;-72
2022/11/25 02:58:35;;;;;;;30.13;14.40;;;;;;;4.32;100.00;99919.89;1743831;82;21030;-72
2022/11/25 03:01:02;;;;;;;27.63;12.47;;;;;;;4.31;100.00;99920.39;1743870;82;21019;-72
2022/11/25 03:03:29;;;;;;;28.97;13.20;;;;;;;4.30;100.00;99921.86;1743637;82;21074;-72
2022/11/25 03:05:56;;;;;;;25.23;11.80;;;;;;;4.31;100.00;99929.77;1743900;82;20994;-72
2022/11/25 03:08:24;;;;;;;26.27;12.47;;;;;;;4.28;100.00;99924.67;1743976;82;21026;-73
2022/11/25 03:10:53;;;;;;;31.73;12.87;;;;;;;4.27;100.00;99921.66;1743606;82;21544;-72
2022/11/25 03:13:19;;;;;;;26.77;11.83;;;;;;;4.25;100.00;99934.80;1743920;82;21110;-72
2022/11/25 03:15:46;;;;;;;27.50;11.90;;;;;;;4.23;100.00;99938.09;1743860;81;21512;-72
2022/11/25 03:18:12;;;;;;;25.50;10.87;;;;;;;4.23;100.00;99940.78;1743894;82;21102;-71
2022/11/25 03:20:39;;;;;;;21.30;10.47;;;;;;;4.21;100.00;99936.89;1722709;83;21542;-75
2022/11/25 03:23:06;;;;;;;24.30;11.27;;;;;;;4.19;100.00;99943.70;1723191;83;21510;-73
2022/11/25 03:25:34;;;;;;;26.63;11.40;;;;;;;4.20;100.00;99940.56;1723055;83;21023;-72
2022/11/25 03:28:01;;;;;;;21.80;9.33;;;;;;;4.21;100.00;99953.45;1723354;83;21040;-72
2022/11/25 03:30:29;;;;;;;21.50;9.43;;;;;;;4.22;100.00;99964.03;1722837;83;21092;-73
2022/11/25 03:32:57;;;;;;;23.67;10.27;;;;;;;4.22;100.00;99961.84;1723064;83;21043;-72
2022/11/25 03:35:26;;;;;;;22.97;9.53;;;;;;;4.20;100.00;99960.64;1722686;83;21088;-73
2022/11/25 03:37:52;;;;;;;22.67;10.17;;;;;;;4.21;100.00;99960.14;1724422;82;21020;-72
2022/11/25 03:40:20;;;;;;;22.90;9.73;;;;;;;4.24;100.00;99970.59;1743622;82;21039;-73
2022/11/25 03:42:46;;;;;;;25.27;10.43;;;;;;;4.24;100.00;99966.58;1738014;83;20995;-72
2022/11/25 03:45:14;;;;;;;19.73;9.03;;;;;;;4.25;100.00;99964.23;1739440;81;21055;-72
2022/11/25 03:47:43;;;;;;;20.30;8.87;;;;;;;4.25;100.00;99962.90;1710956;82;21105;-71
2022/11/25 03:50:12;;;;;;;20.30;8.80;;;;;;;4.24;100.00;99957.20;1740103;82;21035;-71
2022/11/25 03:52:39;;;;;;;19.53;8.93;;;;;;;4.26;100.00;99955.24;1740241;82;21055;-73
2022/11/25 03:55:08;;;;;;;19.57;8.60;;;;;;;4.29;100.00;99954.98;1711100;82;21011;-73
2022/11/25 03:57:36;;;;;;;20.53;9.33;;;;;;;4.31;100.00;99953.86;1740327;82;21484;-73
2022/11/25 04:00:04;;;;;;;22.73;10.30;;;;;;;4.28;100.00;99947.42;1740645;82;21006;-72
2022/11/25 04:02:34;;;;;;;20.60;9.00;;;;;;;4.25;100.00;99940.15;1740177;82;21499;-72
2022/11/25 04:05:02;;;;;;;21.83;9.67;;;;;;;4.22;100.00;99942.61;1740383;82;21019;-72
2022/11/25 04:07:29;;;;;;;20.23;8.40;;;;;;;4.19;100.00;99937.02;1740166;82;21098;-71
2022/11/25 04:09:56;;;;;;;23.13;10.07;;;;;;;4.16;100.00;99939.11;1735815;82;21081;-72
2022/11/25 04:15:15;;;;;;;18.50;8.37;;;;;;;4.10;100.00;99948.52;1643430;87;21086;-73
2022/11/25 04:17:43;;;;;;;21.90;9.60;;;;;;;4.07;100.00;99943.45;1691146;85;21104;-73
2022/11/25 04:20:11;;;;;;;19.07;8.70;;;;;;;4.04;100.00;99947.73;1638808;88;21027;-73
2022/11/25 04:22:39;;;;;;;23.37;10.57;;;;;;;4.00;100.00;99950.28;1691026;85;20998;-73
2022/11/25 04:25:06;;;;;;;22.50;9.47;;;;;;;3.98;100.00;99956.26;1629375;88;21103;-72
2022/11/25 04:27:33;;;;;;;22.93;9.13;;;;;;;3.93;100.00;99962.48;1642975;87;21102;-71
2022/11/25 04:30:00;;;;;;;21.63;9.37;;;;;;;3.90;100.00;99963.61;1641482;87;21027;-72
2022/11/25 04:32:29;;;;;;;20.90;9.07;;;;;;;3.88;100.00;99966.04;1641102;87;21572;-72
2022/11/25 04:34:57;;;;;;;19.63;8.70;;;;;;;3.86;100.00;99968.88;1641524;87;21111;-72
2022/11/25 04:37:26;;;;;;;17.93;8.23;;;;;;;3.84;100.00;99972.14;1641500;87;21488;-70
2022/11/25 04:39:53;;;;;;;19.27;8.47;;;;;;;3.83;100.00;99969.13;1641406;87;21070;-71
2022/11/25 04:42:31;;;;;;;21.77;8.10;;;;;;;3.85;100.00;99955.63;1641589;87;21063;-72
2022/11/25 04:44:59;;;;;;;16.43;7.30;;;;;;;3.88;100.00;99964.70;1653582;86;21045;-72
2022/11/25 04:47:28;;;;;;;18.37;8.13;;;;;;;3.92;100.00;99984.89;1695687;85;21131;-73
2022/11/25 04:49:55;;;;;;;18.70;8.27;;;;;;;3.94;100.00;99981.59;1695823;85;21534;-71
2022/11/25 04:52:22;;;;;;;16.93;7.97;;;;;;;3.93;100.00;99978.54;1695786;85;21120;-71
2022/11/25 04:54:49;;;;;;;20.37;7.70;;;;;;;3.89;100.00;99973.94;1695940;85;21030;-72
2022/11/25 04:57:18;;;;;;;19.43;8.03;;;;;;;3.85;100.00;99969.00;1696038;85;21049;-73
2022/11/25 04:59:45;;;;;;;18.67;8.17;;;;;;;3.80;100.00;99977.39;1695662;85;21029;-72
2022/11/25 05:02:23;;;;;;;19.87;7.43;;;;;;;3.73;100.00;99974.38;1717124;82;21095;-70
2022/11/25 05:04:56;;;;;;;17.93;8.03;;;;;;;3.68;100.00;99974.41;1649648;87;21028;-72
2022/11/25 05:07:24;;;;;;;22.40;8.53;;;;;;;3.62;100.00;99985.14;1652948;87;21557;-73
2022/11/25 05:09:52;;;;;;;19.37;8.17;;;;;;;3.55;100.00;99992.81;1653009;87;21103;-72
2022/11/25 05:12:23;;;;;;;20.03;7.17;;;;;;;3.52;100.00;99980.19;1649640;87;21032;-70
2022/11/25 05:14:50;;;;;;;18.40;7.07;;;;;;;3.51;100.00;99978.51;1652930;87;21001;-72
2022/11/25 05:17:21;;;;;;;19.33;8.10;;;;;;;3.53;100.00;99977.39;1652846;86;21068;-72
2022/11/25 05:19:49;;;;;;;21.52;9.33;;;;;;;3.55;100.00;99992.81;1637985;88;21034;-71
2022/11/25 05:22:20;;;;;;;19.77;8.60;;;;;;;3.52;100.00;99984.20;1663629;86;21021;-71
2022/11/25 05:24:49;;;;;;;19.67;8.43;;;;;;;3.49;100.00;99985.78;1663454;86;21052;-72
2022/11/25 05:27:19;;;;;;;18.73;8.17;;;;;;;3.48;100.00;99988.11;1663168;86;21052;-71
2022/11/25 05:29:48;;;;;;;23.10;9.33;;;;;;;3.47;100.00;99983.73;1663273;85;21044;-72
2022/11/25 05:32:15;;;;;;;20.60;8.40;;;;;;;3.45;100.00;99990.53;1663111;86;21566;-71
2022/11/25 05:34:42;;;;;;;19.17;8.33;;;;;;;3.42;100.00;99988.13;1663234;86;21666;-71
2022/11/25 05:37:11;;;;;;;17.23;7.97;;;;;;;3.40;100.00;100001.62;1663231;85;21009;-72
2022/11/25 05:39:40;;;;;;;20.03;8.43;;;;;;;3.40;100.00;100002.13;1662998;85;21032;-72
2022/11/25 05:42:12;;;;;;;18.00;8.67;;;;;;;3.38;100.00;100008.92;1617144;89;21078;-71
2022/11/25 05:44:39;;;;;;;18.20;7.50;;;;;;;3.38;100.00;100014.27;1616216;89;21103;-71
2022/11/25 05:47:08;;;;;;;18.10;8.40;;;;;;;3.37;100.00;100015.73;1610966;89;21150;-72
2022/11/25 05:49:35;;;;;;;19.87;8.10;;;;;;;3.38;100.00;100015.61;1610944;89;21095;-71
2022/11/25 05:52:02;;;;;;;17.07;7.70;;;;;;;3.39;100.00;100020.45;1611202;89;21070;-72
2022/11/25 05:54:32;;;;;;;18.73;7.93;;;;;;;3.40;100.00;100015.48;1610877;89;21548;-71
2022/11/25 05:57:00;;;;;;;18.80;7.43;;;;;;;3.40;100.00;100020.34;1610857;88;21034;-71
2022/11/25 05:59:36;;;;;;;23.67;8.67;;;;;;;3.38;100.00;100023.63;1611243;89;21074;-72
2022/11/25 06:02:05;;;;;;;19.13;8.57;;;;;;;3.38;100.00;100026.30;1659825;86;21093;-72
2022/11/25 06:04:34;;;;;;;20.47;8.87;;;;;;;3.38;100.00;100023.63;1665601;86;21066;-72
2022/11/25 06:07:02;;;;;;;20.13;8.00;;;;;;;3.39;100.00;100025.80;1665345;86;21100;-71
2022/11/25 06:09:30;;;;;;;21.70;8.27;;;;;;;3.40;100.00;100024.34;1665649;86;21097;-72
2022/11/25 06:11:56;;;;;;;24.67;9.50;;;;;;;3.42;100.00;100028.23;1665610;86;21041;-72
2022/11/25 06:14:26;;;;;;;21.27;8.50;;;;;;;3.41;100.00;100026.02;1665387;86;21591;-73
2022/11/25 06:16:53;;;;;;;18.17;8.53;;;;;;;3.43;100.00;100032.59;1665601;86;21026;-73
2022/11/25 06:19:22;;;;;;;18.03;7.37;;;;;;;3.43;100.00;100024.56;1629055;88;21093;-71
2022/11/25 06:21:49;;;;;;;18.07;7.87;;;;;;;3.44;100.00;100030.29;1628709;88;21070;-74
2022/11/25 06:24:16;;;;;;;20.27;8.53;;;;;;;3.45;100.00;100039.14;1629173;88;21019;-72
2022/11/25 06:26:44;;;;;;;20.13;8.70;;;;;;;3.45;100.00;100039.14;1628939;88;21106;-71
2022/11/25 06:29:13;;;;;;;18.53;7.10;;;;;;;3.43;100.00;100045.95;1629033;88;21569;-74
2022/11/25 11:42:58;;;;;;;36.13;18.00;;;;;;;5.45;100.00;99999.20;1879080;76;27997;-76
2022/11/25 11:45:48;;;;;;;31.37;16.13;;;;;;;5.58;100.00;100012.34;1855706;77;21030;-75
2022/11/25 11:48:29;;;;;;;30.83;14.63;;;;;;;5.66;100.00;100028.60;1855276;77;21040;-75
2022/11/25 11:51:35;;;;;;;33.27;13.80;;;;;;;5.68;100.00;100040.91;1850835;77;21010;-74
2022/11/25 11:54:22;;;;;;;33.03;14.27;;;;;;;5.69;100.00;100076.62;1838055;77;21026;-76
2022/11/25 11:57:01;;;;;;;32.07;15.20;;;;;;;5.68;100.00;100103.95;1725948;81;21080;-74
2022/11/25 11:59:41;;;;;;;28.70;13.63;;;;;;;5.66;100.00;100116.63;1754965;81;21007;-78
2022/11/25 12:02:36;;;;;;;25.23;12.80;;;;;;;5.62;100.00;100124.61;1697063;84;21002;-75
2022/11/25 12:05:23;;;;;;;25.30;11.97;;;;;;;5.60;100.00;100116.36;1677579;84;21057;-75
2022/11/25 12:08:15;;;;;;;26.07;11.93;;;;;;;5.54;100.00;100105.66;1672426;86;21014;-73
2022/11/25 12:11:00;;;;;;;23.53;11.43;;;;;;;5.51;100.00;100112.66;1672844;84;21058;-78
2022/11/25 12:13:35;;;;;;;24.30;10.48;;;;;;;5.49;100.00;100109.27;1615804;87;21120;-77
2022/11/25 12:16:19;;;;;;;23.10;10.97;;;;;;;5.48;100.00;100108.40;1652189;86;21586;-74
2022/11/25 12:19:00;;;;;;;22.60;10.03;;;;;;;5.47;100.00;100104.51;1664897;86;21146;-74
2022/11/25 12:22:01;;;;;;;23.27;10.70;;;;;;;5.47;100.00;100110.74;1664903;86;21061;-74
2022/11/25 12:25:05;;;;;;;22.60;10.50;;;;;;;5.46;100.00;100105.01;1643173;87;21170;-73
2022/11/25 12:27:50;;;;;;;20.73;9.27;;;;;;;5.39;100.00;100101.68;1643570;87;21619;-74
2022/11/25 12:30:19;;;;;;;21.17;9.60;;;;;;;5.33;100.00;100101.23;1643218;87;21106;-74
2022/11/25 12:33:15;;;;;;;20.47;9.30;;;;;;;5.29;100.00;100097.14;1642778;87;21098;-74
2022/11/25 12:35:51;;;;;;;20.07;9.20;;;;;;;5.29;100.00;100097.14;1596077;89;21067;-71
2022/11/25 12:38:53;;;;;;;19.43;9.70;;;;;;;5.29;100.00;100097.14;1617453;89;21116;-73
2022/11/25 12:41:43;;;;;;;;;;;;;;;5.29;100.00;100094.92;1544153;92;21176;-76
2022/11/25 12:44:30;;;;;;;24.27;10.43;;;;;;;5.29;100.00;100093.12;1542245;93;20121;-74
2022/11/25 12:46:57;;;;;;;23.20;10.20;;;;;;;5.28;100.00;100086.05;1512423;95;21110;-75
2022/11/25 12:49:30;;;;;;;24.77;10.67;;;;;;;5.29;100.00;100091.78;1542149;93;21082;-74
2022/11/25 12:52:09;;;;;;;21.87;10.40;;;;;;;5.29;100.00;100096.27;1541485;92;21115;-76
2022/11/25 12:55:06;;;;;;;25.73;12.20;;;;;;;5.29;100.00;100090.91;1539451;93;21185;-81
2022/11/25 12:58:07;;;;;;;22.70;10.03;;;;;;;5.32;100.00;100092.82;1543898;89;21090;-81
2022/11/25 13:00:53;;;;;;;24.47;11.20;;;;;;;5.36;100.00;100085.86;1615697;89;21049;-79
2022/11/25 13:04:01;;;;;;;20.43;9.70;;;;;;;5.40;100.00;100085.45;1474069;96;21117;-81
2022/11/25 13:07:05;;;;;;;27.17;11.63;;;;;;;5.41;100.00;100084.45;1475631;96;21627;-78
2022/11/25 13:10:13;;;;;;;24.15;10.25;;;;;;;5.45;100.00;100084.56;1392852;102;21196;-82
2022/11/25 13:12:53;;;;;;;28.43;12.43;;;;;;;5.47;100.00;100091.09;1390644;103;21223;-75
2022/11/25 13:15:41;;;;;;;25.40;11.37;;;;;;;5.49;100.00;100094.02;1372500;102;21131;-81
2022/11/25 13:18:13;;;;;;;21.30;8.87;;;;;;;5.51;100.00;100106.79;1372854;100;21147;-84
2022/11/25 13:20:48;;;;;;;22.93;10.07;;;;;;;5.54;100.00;100108.34;1368190;104;21113;-84
2022/11/25 13:23:29;;;;;;;22.57;10.33;;;;;;;5.55;100.00;100099.32;1366794;105;21198;-83
2022/11/25 13:26:36;;;;;;;21.50;9.70;;;;;;;5.57;100.00;100120.14;1365721;105;21243;-81
2022/11/25 13:29:15;;;;;;;22.07;10.17;;;;;;;5.57;100.00;100120.14;1382602;104;21148;-75
2022/11/25 13:32:05;;;;;;;21.13;11.10;;;;;;;5.58;100.00;100107.10;1381426;104;21217;-74
2022/11/25 13:34:38;;;;;;;19.80;9.20;;;;;;;5.61;100.00;100124.27;1403719;99;21652;-75
2022/11/25 13:37:35;;;;;;;21.17;9.40;;;;;;;5.60;100.00;100119.04;1490074;96;21098;-75
2022/11/25 13:40:28;;;;;;;24.67;9.37;;;;;;;5.60;100.00;100127.09;1467550;95;21109;-75
2022/11/25 13:42:56;;;;;;;21.50;9.57;;;;;;;5.61;100.00;100123.40;1501557;95;21717;-74
2022/11/25 13:45:35;;;;;;;19.97;9.60;;;;;;;5.62;100.00;100124.61;1517332;93;21074;-75
2022/11/25 13:48:28;;;;;;;22.23;10.13;;;;;;;5.65;100.00;100128.87;1533885;94;21612;-74
2022/11/25 13:51:20;;;;;;;21.97;10.17;;;;;;;5.67;100.00;100122.87;1523613;92;21082;-75
2022/11/25 13:54:03;;;;;;;27.27;11.37;;;;;;;5.69;100.00;100123.58;1492799;95;21108;-72
2022/11/25 13:56:36;;;;;;;26.17;11.78;;;;;;;5.71;100.00;100126.96;1480101;97;21137;-74
2022/11/25 13:59:15;;;;;;;23.40;11.47;;;;;;;5.73;100.00;100136.22;1483567;94;21088;-72
2022/11/25 14:01:51;;;;;;;29.53;13.37;;;;;;;5.73;100.00;100137.56;1525352;94;21118;-74
2022/11/25 14:04:23;;;;;;;33.93;14.93;;;;;;;5.73;100.00;100129.52;1523757;94;21129;-74
2022/11/25 14:07:12;;;;;;;28.53;13.73;;;;;;;5.74;100.00;100129.84;1504475;94;21074;-73
2022/11/25 14:10:16;;;;;;;24.87;10.70;;;;;;;5.74;100.00;100130.72;1502180;95;21140;-75
2022/11/25 14:13:27;;;;;;;22.43;11.07;;;;;;;5.75;100.00;100122.17;1501547;95;21094;-73
2022/11/25 14:16:35;;;;;;;27.77;11.57;;;;;;;5.76;100.00;100120.69;1501164;95;21186;-74
2022/11/25 14:19:44;;;;;;;26.27;11.30;;;;;;;5.76;100.00;100116.67;1515625;93;21076;-74
2022/11/25 14:22:42;;;;;;;28.33;11.70;;;;;;;5.77;100.00;100113.48;1531674;93;21151;-76
2022/11/25 14:25:29;;;;;;;28.07;12.10;;;;;;;5.77;100.00;100117.51;1531848;94;21135;-74
2022/11/25 14:28:22;;;;;;;26.00;11.03;;;;;;;5.79;100.00;100121.77;1533246;94;21576;-76
2022/11/25 14:30:54;;;;;;;23.90;11.27;;;;;;;5.81;100.00;100132.37;1552519;90;21591;-78
2022/11/25 14:33:25;;;;;;;22.20;11.12;;;;;;;5.80;100.00;100127.97;1585939;89;21556;-74
2022/11/25 14:35:57;;;;;;;23.63;11.40;;;;;;;5.81;100.00;100132.37;1611891;89;21050;-74
2022/11/25 14:38:41;;;;;;;25.20;12.00;;;;;;;5.83;100.00;100133.07;1592447;90;21274;-75
2022/11/25 14:41:33;;;;;;;26.67;11.40;;;;;;;5.85;100.00;100130.59;1588583;89;21119;-75
2022/11/25 14:44:05;;;;;;;23.83;11.50;;;;;;;5.86;100.00;100127.41;1544827;93;21086;-75
2022/11/25 14:46:33;;;;;;;25.37;11.70;;;;;;;5.85;100.00;100127.91;1523068;94;21122;-74
2022/11/25 14:49:01;;;;;;;24.47;10.87;;;;;;;5.85;100.00;100144.52;1576559;91;21527;-74
2022/11/25 14:51:34;;;;;;;25.97;10.20;;;;;;;5.84;100.00;100149.04;1574790;91;21161;-74
2022/11/25 14:54:05;;;;;;;23.07;9.88;;;;;;;5.85;100.00;100145.34;1593810;89;21042;-76
2022/11/25 14:56:34;;;;;;;21.93;10.37;;;;;;;5.85;100.00;100147.20;1599287;89;21093;-75
2022/11/25 14:59:01;;;;;;;21.57;9.50;;;;;;;5.85;100.00;100137.80;1602131;89;21650;-74
2022/11/25 15:01:31;;;;;;;19.53;9.27;;;;;;;5.86;100.00;100144.84;1601889;89;21077;-75
2022/11/25 15:04:07;;;;;;;22.73;10.83;;;;;;;5.86;100.00;100148.87;1632660;87;21065;-75
2022/11/25 15:06:37;;;;;;;20.30;9.50;;;;;;;5.86;100.00;100153.77;1650837;87;21543;-74
2022/11/25 15:09:13;;;;;;;23.37;11.53;;;;;;;5.86;100.00;100151.56;1654101;87;21662;-74
2022/11/25 15:11:39;;;;;;;26.27;13.23;;;;;;;5.86;100.00;100158.27;1649853;87;21165;-74
2022/11/25 15:14:25;;;;;;;29.30;14.23;;;;;;;5.83;100.00;100153.20;1654382;87;21077;-76
2022/11/25 15:16:51;;;;;;;26.77;12.80;;;;;;;5.80;100.00;100158.83;1605497;89;21588;-74
2022/11/25 15:19:21;;;;;;;26.03;13.17;;;;;;;5.78;100.00;100146.89;1571448;91;21046;-74
2022/11/25 15:21:53;;;;;;;30.37;13.23;;;;;;;5.79;100.00;100153.09;1676665;85;21606;-75
2022/11/25 15:24:29;;;;;;;32.63;14.55;;;;;;;5.80;100.00;100154.30;1644969;87;21574;-74
2022/11/25 15:26:59;;;;;;;29.03;13.33;;;;;;;5.78;100.00;100152.25;1687440;85;21116;-74
2022/11/25 18:35:26;;;;;;;27.73;14.23;;;;;;;4.66;100.00;100188.31;1822339;79;23476;-82
2022/11/25 18:37:55;;;;;;;29.83;15.60;;;;;;;4.71;100.00;100293.25;1794492;80;20992;-82
2022/11/25 18:40:25;;;;;;;26.07;13.63;;;;;;;4.73;100.00;100314.56;1794411;80;21023;-82
2022/11/25 18:42:55;;;;;;;29.90;13.33;;;;;;;4.76;100.00;100320.98;1794285;80;21509;-82
2022/11/25 18:45:26;;;;;;;26.70;12.83;;;;;;;4.77;100.00;100328.05;1795636;80;21535;-83
2022/11/25 18:47:54;;;;;;;29.13;13.53;;;;;;;4.79;100.00;100321.23;1796427;80;21015;-80
2022/11/25 18:50:26;;;;;;;24.20;11.40;;;;;;;4.80;100.00;100326.47;1796265;80;21507;-80
2022/11/25 18:52:53;;;;;;;24.97;12.70;;;;;;;4.82;100.00;100330.36;1795126;80;21048;-83
2022/11/25 18:55:21;;;;;;;31.47;13.73;;;;;;;4.83;100.00;100332.05;1794752;80;21019;-81
2022/11/25 18:57:52;;;;;;;27.77;14.20;;;;;;;4.83;100.00;100326.19;1794432;80;20988;-81
2022/11/25 19:00:22;;;;;;;29.50;13.13;;;;;;;4.84;100.00;100321.70;1794909;80;20988;-81
2022/11/25 19:02:50;;;;;;;30.23;14.90;;;;;;;4.85;100.00;100324.27;1717199;84;21000;-80
2022/11/25 19:05:25;;;;;;;30.37;14.60;;;;;;;4.87;100.00;100323.64;1693562;84;21020;-81
2022/11/25 19:07:54;;;;;;;32.17;13.40;;;;;;;4.87;100.00;100324.11;1717098;84;21044;-82
2022/11/25 19:10:28;;;;;;;31.30;14.47;;;;;;;4.86;100.00;100327.28;1693505;84;21052;-81
2022/11/25 19:13:01;;;;;;;29.50;14.67;;;;;;;4.86;100.00;100331.30;1717348;83;21091;-81
2022/11/25 19:15:30;;;;;;;25.27;13.13;;;;;;;4.86;100.00;100330.46;1717056;83;21186;-81
2022/11/25 19:17:59;;;;;;;31.37;15.23;;;;;;;4.85;100.00;100327.41;1717009;84;21604;-80
2022/11/25 19:20:27;;;;;;;29.27;13.37;;;;;;;4.86;100.00;100329.97;1717244;84;21039;-82
2022/11/25 19:22:55;;;;;;;25.23;12.10;;;;;;;4.85;100.00;100328.75;1716879;84;21167;-82
2022/11/25 19:25:24;;;;;;;24.37;11.83;;;;;;;4.85;100.00;100328.75;1717185;84;21028;-80
2022/11/25 19:27:55;;;;;;;23.30;11.87;;;;;;;4.83;100.00;100328.87;1693542;84;21037;-81
2022/11/25 19:30:25;;;;;;;23.53;10.43;;;;;;;4.82;100.00;100331.20;1653371;86;21085;-81
2022/11/25 19:32:54;;;;;;;22.23;9.83;;;;;;;4.81;100.00;100332.17;1653399;87;21053;-81
2022/11/25 19:35:37;;;;;;;24.37;11.40;;;;;;;4.80;100.00;100324.26;1642143;87;21097;-81
2022/11/25 19:38:17;;;;;;;24.07;11.53;;;;;;;4.79;100.00;100326.59;1642181;87;21089;-81
2022/11/25 19:40:44;;;;;;;24.60;10.63;;;;;;;4.76;100.00;100319.64;1597549;90;21027;-81
2022/11/25 19:43:11;;;;;;;23.73;11.63;;;;;;;4.75;100.00;100320.64;1597359;90;21075;-80
2022/11/25 19:45:40;;;;;;;25.03;11.57;;;;;;;4.74;100.00;100313.56;1597246;90;21087;-81
2022/11/25 19:48:13;;;;;;;23.03;10.90;;;;;;;4.73;100.00;100309.20;1597011;90;21135;-81
2022/11/25 19:50:41;;;;;;;26.10;12.50;;;;;;;4.74;100.00;100314.91;1597055;90;21087;-82
2022/11/25 19:53:15;;;;;;;27.50;13.40;;;;;;;4.73;100.00;100311.87;1588649;90;21095;-82
2022/11/25 19:55:44;;;;;;;33.67;15.27;;;;;;;4.71;100.00;100316.02;1572423;91;21144;-82
2022/11/25 19:58:11;;;;;;;27.73;13.77;;;;;;;4.71;100.00;100311.13;1572097;91;21081;-81
2022/11/25 20:00:40;;;;;;;29.30;15.17;;;;;;;4.72;100.00;100314.19;1576588;91;21156;-81
2022/11/25 20:03:15;;;;;;;25.33;13.33;;;;;;;4.69;100.00;100316.64;1576949;91;21108;-81
2022/11/25 20:05:43;;;;;;;27.63;12.93;;;;;;;4.69;100.00;100319.78;1576767;91;21044;-81
2022/11/25 20:08:19;;;;;;;33.10;14.83;;;;;;;4.67;100.00;100315.05;1576851;91;21625;-80
2022/11/25 20:10:47;;;;;;;28.87;14.03;;;;;;;4.68;100.00;100314.92;1576828;91;21040;-82
2022/11/25 20:13:14;;;;;;;32.23;13.93;;;;;;;4.70;100.00;100321.00;1576667;90;21658;-80
2022/11/25 20:15:43;;;;;;;29.30;14.07;;;;;;;4.69;100.00;100320.66;1576844;91;21057;-81
2022/11/25 20:18:16;;;;;;;30.20;14.27;;;;;;;4.69;100.00;100323.34;1576762;91;21037;-81
2022/11/25 20:20:44;;;;;;;23.65;12.55;;;;;;;4.70;100.00;100324.18;1576900;91;21108;-80
2022/11/25 20:23:24;;;;;;;27.83;13.80;;;;;;;4.68;100.00;100314.09;1576680;91;21068;-81
2022/11/25 20:25:52;;;;;;;27.90;13.27;;;;;;;4.69;100.00;100322.00;1537933;93;21579;-81
2022/11/25 20:28:28;;;;;;;22.43;11.40;;;;;;;4.68;100.00;100320.78;1583421;91;21091;-81
2022/11/25 20:30:57;;;;;;;31.07;14.63;;;;;;;4.67;100.00;100320.41;1563416;91;21171;-81
2022/11/25 20:33:25;;;;;;;28.07;14.47;;;;;;;4.67;100.00;100323.08;1583670;91;21107;-81
2022/11/25 20:36:02;;;;;;;31.67;15.57;;;;;;;4.67;100.00;100329.28;1590091;88;21121;-81
2022/11/25 20:38:32;;;;;;;29.93;14.13;;;;;;;4.68;100.00;100339.53;1604650;89;21110;-82
2022/11/25 20:41:00;;;;;;;34.33;16.13;;;;;;;4.65;100.00;100337.09;1606339;89;21131;-81
2022/11/25 20:43:30;;;;;;;25.63;12.73;;;;;;;4.66;100.00;100344.17;1606387;89;21049;-81
2022/11/25 20:45:59;;;;;;;32.77;15.90;;;;;;;4.66;100.00;100342.33;1631830;86;21064;-82
2022/11/25 20:48:28;;;;;;;37.30;15.50;;;;;;;4.64;100.00;100348.31;1656069;86;21055;-82
2022/11/25 20:51:01;;;;;;;27.20;13.87;;;;;;;4.63;100.00;100349.27;1655763;87;21063;-81
2022/11/25 20:53:30;;;;;;;28.42;14.53;;;;;;;4.62;100.00;100354.28;1656168;87;21088;-81
2022/11/25 20:55:57;;;;;;;32.60;15.43;;;;;;;4.60;100.00;100355.37;1655671;86;21211;-82
2022/11/25 20:58:31;;;;;;;23.83;12.07;;;;;;;4.60;100.00;100367.42;1655883;87;21040;-82
2022/11/25 21:01:01;;;;;;;28.23;12.80;;;;;;;4.60;100.00;100364.74;1655876;87;21036;-82
2022/11/25 21:03:29;;;;;;;26.60;12.80;;;;;;;4.60;100.00;100368.77;1703013;83;21026;-82
2022/11/25 21:05:57;;;;;;;26.93;12.67;;;;;;;4.62;100.00;100370.82;1793768;80;21042;-81
2022/11/25 21:08:30;;;;;;;23.33;13.53;;;;;;;4.60;100.00;100374.11;1793903;80;21062;-81
2022/11/25 21:10:58;;;;;;;31.87;14.40;;;;;;;4.59;100.00;100375.95;1794348;80;21027;-81
2022/11/25 21:13:28;;;;;;;28.50;13.70;;;;;;;4.60;100.00;100376.80;1793858;80;21280;-81
2022/11/25 21:15:57;;;;;;;31.33;15.37;;;;;;;4.61;100.00;100383.37;1747414;81;21056;-82
2022/11/25 21:18:24;;;;;;;28.23;14.73;;;;;;;4.59;100.00;100375.95;1747591;82;21016;-82
2022/11/25 21:20:53;;;;;;;31.27;14.97;;;;;;;4.60;100.00;100376.80;1747427;82;21008;-82
2022/11/25 21:23:27;;;;;;;25.53;12.87;;;;;;;4.60;100.00;100380.31;1747417;81;21024;-81
2022/11/25 21:26:03;;;;;;;31.27;15.10;;;;;;;4.61;100.00;100386.05;1747656;82;21482;-80
2022/11/25 21:28:30;;;;;;;25.53;13.60;;;;;;;4.62;100.00;100383.75;1639127;88;21038;-81
2022/11/25 21:30:57;;;;;;;26.00;13.27;;;;;;;4.63;100.00;100379.23;1639602;88;21095;-81
2022/11/25 21:33:25;;;;;;;28.07;14.27;;;;;;;4.62;100.00;100385.55;1639132;88;21048;-80
2022/11/25 21:35:53;;;;;;;30.77;13.63;;;;;;;4.60;100.00;100384.33;1639150;88;21460;-82
2022/11/25 21:38:22;;;;;;;29.60;14.67;;;;;;;4.58;100.00;100390.80;1639367;88;20999;-81
2022/11/25 21:40:54;;;;;;;27.83;14.10;;;;;;;4.58;100.00;100386.78;1639380;88;21062;-82
2022/11/25 21:43:31;;;;;;;28.23;14.00;;;;;;;4.57;100.00;100392.64;1639230;88;21066;-81
2022/11/25 21:46:04;;;;;;;26.63;12.83;;;;;;;4.55;100.00;100397.23;1639182;88;21111;-81
2022/11/25 21:48:31;;;;;;;23.73;12.50;;;;;;;4.53;100.00;100393.37;1616642;87;21133;-81
2022/11/25 21:50:59;;;;;;;25.80;12.20;;;;;;;4.55;100.00;100391.89;1617363;89;21062;-81
2022/11/25 21:53:28;;;;;;;25.23;12.37;;;;;;;4.56;100.00;100392.27;1617069;89;21168;-80
2022/11/25 21:55:55;;;;;;;30.27;13.20;;;;;;;4.58;100.00;100394.82;1617158;89;21088;-82
2022/11/25 21:58:27;;;;;;;33.03;16.57;;;;;;;4.58;100.00;100396.16;1617248;89;21093;-81
2022/11/25 22:00:57;;;;;;;24.35;12.10;;;;;;;4.56;100.00;100402.48;1617637;89;21094;-82
2022/11/25 22:03:27;;;;;;;32.73;15.93;;;;;;;4.58;100.00;100405.03;1617490;89;21057;-80
2022/11/25 22:05:56;;;;;;;27.37;12.47;;;;;;;4.58;100.00;100405.03;1617500;89;21026;-82
2022/11/25 22:08:23;;;;;;;32.50;15.13;;;;;;;4.61;100.00;100407.97;1617435;89;21093;-80
2022/11/25 22:10:52;;;;;;;30.23;14.80;;;;;;;4.60;100.00;100407.59;1617405;89;21129;-79
